createdAt,value
2023-05-18T00:03:54.836Z,31
2023-05-18T00:09:31.884Z,30.9
2023-05-18T00:14:53.199Z,30.9
2023-05-18T00:20:15.594Z,30.9
2023-05-18T00:25:36.449Z,30.9
2023-05-18T00:30:56.810Z,30.8
2023-05-18T00:36:34.894Z,30.8
2023-05-18T00:42:10.408Z,30.8
2023-05-18T00:48:03.041Z,30.8
2023-05-18T00:53:54.760Z,30.7
2023-05-18T00:59:30.523Z,30.7
2023-05-18T01:05:23.143Z,31.6
2023-05-18T01:10:43.836Z,33.3
2023-05-18T01:16:35.543Z,34.2
2023-05-18T01:22:26.961Z,35.1
2023-05-18T01:28:03.609Z,35.9
2023-05-18T01:33:54.642Z,36.6
2023-05-18T01:39:33.653Z,37.3
2023-05-18T01:45:25.628Z,38.1
2023-05-18T01:51:02.637Z,38.9
2023-05-18T01:56:38.582Z,39.6
2023-05-18T02:02:16.645Z,40.4
2023-05-18T02:07:52.884Z,41.3
2023-05-18T02:13:44.014Z,41.9
2023-05-18T02:19:36.739Z,42.3
2023-05-18T02:25:30.826Z,42.5
2023-05-18T02:31:07.513Z,42.6
2023-05-18T02:37:00.131Z,42.6
2023-05-18T02:42:35.864Z,42.6
2023-05-18T02:48:28.496Z,42.6
2023-05-18T02:54:04.903Z,42.6
2023-05-18T02:59:57.994Z,42.5
2023-05-18T03:05:51.308Z,42.4
2023-05-18T03:11:43.609Z,42.4
2023-05-18T03:17:34.928Z,42.4
2023-05-18T03:22:42.051Z,42.3
2023-05-18T03:28:18.671Z,42.3
2023-05-18T03:34:10.659Z,42.2
2023-05-18T03:40:02.490Z,42.1
2023-05-18T03:45:54.252Z,42.1
2023-05-18T03:51:30.704Z,42.1
2023-05-18T03:57:23.066Z,41.9
2023-05-18T04:03:16.031Z,41.9
2023-05-18T04:09:10.253Z,41.8
2023-05-18T04:15:01.676Z,41.8
2023-05-18T04:20:54.816Z,41.8
2023-05-18T04:26:46.484Z,41.5
2023-05-18T04:32:37.720Z,41
2023-05-18T04:38:15.805Z,40.7
2023-05-18T04:44:07.083Z,40.5
2023-05-18T04:49:59.738Z,40.4
2023-05-18T04:55:36.568Z,40.4
2023-05-18T05:01:27.642Z,40.4
2023-05-18T05:07:22.755Z,40.4
2023-05-18T05:13:15.227Z,40.3
2023-05-18T05:19:06.713Z,40.3
2023-05-18T05:24:59.201Z,40.2
2023-05-18T05:30:51.916Z,40.1
2023-05-18T05:36:28.658Z,40.1
2023-05-18T05:42:22.334Z,40.1
2023-05-18T05:48:14.612Z,39.9
2023-05-18T05:54:05.980Z,39.9
2023-05-18T05:59:57.604Z,39.8
2023-05-18T06:05:50.835Z,39.8
2023-05-18T06:11:44.431Z,39.8
2023-05-18T06:17:36.881Z,39.7
2023-05-18T06:23:32.419Z,39.6
2023-05-18T06:29:23.711Z,39.5
2023-05-18T06:35:16.449Z,39.4
2023-05-18T06:40:54.267Z,39.4
2023-05-18T06:46:45.585Z,39.3
2023-05-18T06:52:21.726Z,39.3
2023-05-18T06:57:58.825Z,39.3
2023-05-18T07:03:50.373Z,39.2
2023-05-18T07:09:43.243Z,39.1
2023-05-18T07:15:03.592Z,39.1
2023-05-18T07:20:58.439Z,39
2023-05-18T07:26:49.952Z,38.9
2023-05-18T07:32:26.937Z,38.9
2023-05-18T07:38:19.042Z,38.8
2023-05-18T07:43:55.645Z,38.8
2023-05-18T07:49:48.795Z,38.8
2023-05-18T07:55:24.358Z,38.7
2023-05-18T08:01:00.289Z,38.6
2023-05-18T08:06:38.260Z,38.6
2023-05-18T08:12:13.888Z,38.5
2023-05-18T08:18:22.960Z,38.4
2023-05-18T08:24:00.024Z,38.4
2023-05-18T08:29:37.065Z,38.4
2023-05-18T08:35:14.269Z,38.3
2023-05-18T08:40:51.462Z,38.3
2023-05-18T08:46:27.268Z,38.2
2023-05-18T08:52:07.461Z,38.1
2023-05-18T08:57:44.142Z,38.1
2023-05-18T09:03:20.591Z,38
2023-05-18T09:08:57.734Z,38
2023-05-18T09:14:36.217Z,37.9
2023-05-18T09:20:12.657Z,37.9
2023-05-18T09:25:49.290Z,37.8
2023-05-18T09:31:28.571Z,37.8
2023-05-18T09:37:05.533Z,37.8
2023-05-18T09:42:41.766Z,37.7
2023-05-18T09:48:03.477Z,37.7
2023-05-18T09:53:24.299Z,37.6
2023-05-18T09:58:59.295Z,37.5
2023-05-18T10:04:39.522Z,37.4
2023-05-18T10:10:00.835Z,37.3
2023-05-18T10:15:06.501Z,37.3
2023-05-18T10:20:39.223Z,37.2
2023-05-18T10:25:47.649Z,37.1
2023-05-18T10:31:25.596Z,37.1
2023-05-18T10:37:22.606Z,37.1
2023-05-18T10:42:43.754Z,37
2023-05-18T10:47:52.378Z,36.9
2023-05-18T10:53:14.214Z,36.9
2023-05-18T10:59:33.502Z,36.9
2023-05-18T11:04:54.573Z,36.9
2023-05-18T11:10:31.824Z,36.8
2023-05-18T11:15:51.904Z,36.8
2023-05-18T11:21:28.598Z,36.7
2023-05-18T11:27:20.751Z,36.7
2023-05-18T11:33:15.511Z,36.6
2023-05-18T11:38:53.654Z,36.6
2023-05-18T11:44:46.455Z,36.6
2023-05-18T11:55:46.002Z,36.5
2023-05-18T12:01:10.603Z,36.5
2023-05-18T12:06:54.558Z,36.5
2023-05-18T12:12:30.894Z,36.4
2023-05-18T12:17:54.016Z,36.4
2023-05-18T12:23:28.778Z,34.6
2023-05-18T12:29:04.741Z,29.6
2023-05-18T12:34:26.896Z,27.1
2023-05-18T12:40:16.931Z,25.9
2023-05-18T12:45:55.758Z,25.1
2023-05-18T12:51:50.075Z,24.4
2023-05-18T12:57:41.289Z,24.1
2023-05-18T13:03:17.986Z,23.8
2023-05-18T13:08:55.416Z,23.5
2023-05-18T13:15:13.476Z,23.3
2023-05-18T13:21:09.030Z,23.1
2023-05-18T13:26:47.710Z,23
2023-05-18T13:32:08.018Z,22.9
2023-05-18T13:38:01.365Z,22.8
2023-05-18T13:43:22.521Z,22.6
2023-05-18T13:49:00.287Z,22.6
2023-05-18T13:54:36.543Z,22.5
2023-05-18T14:00:30.461Z,22.4
2023-05-18T14:06:22.346Z,22.4
2023-05-18T14:11:44.550Z,22.3
2023-05-18T14:17:36.925Z,22.3
2023-05-18T14:23:28.198Z,22.3
2023-05-18T14:29:19.562Z,22.1
2023-05-18T14:35:12.111Z,21.9
2023-05-18T14:40:49.589Z,21.8
2023-05-18T14:46:56.644Z,21.8
2023-05-18T14:52:51.132Z,21.6
2023-05-18T14:58:41.139Z,21.6
2023-05-18T15:04:34.321Z,21.6
2023-05-18T15:10:26.480Z,21.5
2023-05-18T15:16:01.690Z,21.5
2023-05-18T15:21:53.794Z,21.4
2023-05-18T15:27:47.575Z,21.4
2023-05-18T15:33:38.588Z,21.4
2023-05-18T15:39:29.970Z,21.4
2023-05-18T15:45:22.409Z,21.2
2023-05-18T15:50:57.784Z,20.8
2023-05-18T15:56:49.751Z,20.4
2023-05-18T16:02:42.520Z,20.2
2023-05-18T16:08:18.361Z,20.1
2023-05-18T16:13:56.639Z,19.9
2023-05-18T16:19:50.334Z,19.9
2023-05-18T16:25:40.867Z,19.8
2023-05-18T16:31:02.510Z,19.8
2023-05-18T16:36:55.076Z,19.7
2023-05-18T16:42:47.046Z,19.7
2023-05-18T16:48:39.577Z,19.6
2023-05-18T16:54:34.758Z,19.6
2023-05-18T17:00:25.455Z,19.6
2023-05-18T17:06:33.882Z,19.6
2023-05-18T17:12:13.551Z,19.6
2023-05-18T17:17:49.846Z,19.5
2023-05-18T17:23:41.675Z,19.5
2023-05-18T17:29:47.667Z,19.5
2023-05-18T17:35:23.802Z,19.5
2023-05-18T17:41:15.298Z,19.5
2023-05-18T17:47:08.264Z,19.5
2023-05-18T17:52:59.704Z,19.4
2023-05-18T17:58:50.390Z,19.4
2023-05-18T18:04:28.764Z,19.4
2023-05-18T18:10:05.512Z,19.4
2023-05-18T18:15:57.615Z,19.4
2023-05-18T18:21:35.239Z,19.4
2023-05-18T18:27:26.637Z,19.4
2023-05-18T18:33:03.306Z,19.4
2023-05-18T18:38:24.766Z,19.4
2023-05-18T18:44:16.383Z,19.4
2023-05-18T18:50:08.670Z,19.4
2023-05-18T18:56:00.738Z,19.4
2023-05-18T19:01:35.895Z,19.2
2023-05-18T19:07:28.458Z,19.1
2023-05-18T19:13:05.198Z,19.1
2023-05-18T19:18:57.782Z,19.2
2023-05-18T19:24:50.063Z,19.7
2023-05-18T19:30:42.305Z,20.4
2023-05-18T19:36:35.174Z,21.3
2023-05-18T19:42:13.848Z,22.4
2023-05-18T19:48:07.360Z,23.4
2023-05-18T19:53:57.883Z,24.4
2023-05-18T19:59:49.480Z,25.5
2023-05-18T20:05:27.367Z,26.6
2023-05-18T20:11:18.857Z,27.7
2023-05-18T20:17:10.862Z,28.4
2023-05-18T20:22:48.277Z,28.8
2023-05-18T20:28:26.705Z,29
2023-05-18T20:33:48.064Z,29.2
2023-05-18T20:39:24.945Z,29.3
2023-05-18T20:45:00.733Z,29.4
2023-05-18T20:50:53.255Z,29.4
2023-05-18T20:56:45.069Z,29.5
2023-05-18T21:02:36.681Z,29.5
2023-05-18T21:08:17.157Z,29.6
2023-05-18T21:13:38.797Z,29.6
2023-05-18T21:19:30.396Z,29.6
2023-05-18T21:25:21.771Z,29.6
2023-05-18T21:31:14.162Z,29.6
2023-05-18T21:37:05.948Z,29.6
2023-05-18T21:42:42.844Z,29.6
2023-05-18T21:48:06.650Z,29.6
2023-05-18T21:53:42.645Z,29.6
2023-05-18T21:59:19.943Z,29.6
2023-05-18T22:05:12.428Z,29.6
2023-05-18T22:11:03.942Z,29.6
2023-05-18T22:16:24.059Z,29.6
2023-05-18T22:22:00.710Z,29.5
2023-05-18T22:27:48.107Z,29.5
2023-05-18T22:33:24.954Z,29.5
2023-05-18T22:39:00.902Z,29.5
2023-05-18T22:44:35.977Z,29.4
2023-05-18T22:50:28.180Z,29.4
2023-05-18T22:56:04.600Z,29.4
2023-05-18T23:01:40.449Z,29.4
2023-05-18T23:07:17.210Z,29.4
2023-05-18T23:13:08.620Z,29.4
2023-05-18T23:19:00.420Z,29.3
2023-05-18T23:24:52.100Z,29.3
2023-05-18T23:30:44.347Z,29.3
2023-05-18T23:36:36.605Z,29.3
2023-05-18T23:42:28.656Z,29.3
2023-05-18T23:48:20.896Z,29.3
2023-05-18T23:54:12.435Z,29.2
